Penngrove, California
Current Conditions -  °F | °C
As of 9:10 PM on Thursday 30 Oct 2014 (Local Time) from KO69 Reporting Station
Overcast Overcast  
Wind Chill: 61°   Ceiling: 800
Heat Index: 61°   Visibility: 10mi
Dew Point: 59°   Wind: 3mph
Humidity: 94%   Direction: 320°NW
Pressure: 29.91"   Gusts: NA
Location:  38.3°N, 122.67°W
Report Text: KO69 310410Z AUTO 32003KT 10SM OVC008 16/15 A2991 RMK AO1
Loading
Personal Weather Stations






























Interactive Weather Map
Tropical Storm Tracking
New forecast layout! Learn more

10-Day Weather Forecast

Advertisements
Track Severe Weather on mobile